Safmarine Limpopo — 4RBK — position and weather

sailwx.info

Track history (hours):
 
Tides and Currents Weather Stations Pressure Air Temp Water Temp Dewpoint Dewpoint Depression Visibility Wind Speed Wind Dir Waves Ship Positions

Safmarine Limpopo

Last reported at 2015-Jan-19 07:32 UTC. Time now 2015-Jan-28 16:14 UTC.
Position N 06°10' E 003°28'.
Warning: this ship's position is 9 days out of date.

Length 140 m; draft 8.6 m.

Type: Ship (hazmat cat A). MMSI: 417222324.

Date/timePositionNaut miles runAvg speedWind from/ knotsBaromVisibWave heightAir tempDewpointWater temp
2015-Jan-19 07:32N 06°10' E 003°28'1212.2
2015-Jan-19 06:34N 06°22' E 003°25'5 5.3
2015-Jan-19 05:32N 06°26' E 003°22'0 0.0
2015-Jan-19 04:32N 06°26' E 003°22'0 0.0
2015-Jan-19 03:32N 06°26' E 003°22'0 0.0
2015-Jan-19 02:32N 06°26' E 003°22'0 0.0
2015-Jan-19 01:32N 06°26' E 003°22'0 0.0
2015-Jan-19 00:32N 06°26' E 003°22'0 0.0
2015-Jan-18 23:29N 06°26' E 003°22'0 0.0
2015-Jan-18 22:20N 06°26' E 003°22'0 0.0
2015-Jan-18 21:14N 06°26' E 003°22'0 0.0
2015-Jan-18 20:29N 06°26' E 003°22'0 0.0
2015-Jan-18 19:32N 06°26' E 003°22'0 0.0
2015-Jan-18 18:26N 06°26' E 003°22'0 0.0
2015-Jan-18 17:26N 06°26' E 003°22'0 0.0
2015-Jan-18 16:32N 06°26' E 003°22'0 0.0
2015-Jan-18 15:29N 06°26' E 003°22'0 0.0
2015-Jan-18 14:32N 06°26' E 003°22'0 0.0
2015-Jan-18 13:32N 06°26' E 003°22'0 0.0
2015-Jan-18 12:23N 06°26' E 003°22'0 0.0
2015-Jan-18 11:29N 06°26' E 003°22'0 0.0
2015-Jan-18 10:23N 06°26' E 003°22'0 0.0
2015-Jan-18 09:23N 06°26' E 003°22'0 0.0
2015-Jan-18 08:32N 06°26' E 003°22'0 0.0
2015-Jan-18 07:32N 06°26' E 003°22'0 0.0
2015-Jan-18 06:32N 06°26' E 003°22'0 0.0
2015-Jan-18 05:32N 06°26' E 003°22'0 0.0
2015-Jan-18 04:32N 06°26' E 003°22'0 0.0
2015-Jan-18 03:32N 06°26' E 003°22'0 0.0
2015-Jan-18 02:26N 06°26' E 003°22'0 0.0
2015-Jan-18 01:29N 06°26' E 003°22'0 0.0
2015-Jan-18 00:32N 06°26' E 003°22'0 0.0
2015-Jan-17 23:23N 06°26' E 003°22'0 0.0
2015-Jan-17 21:32N 06°26' E 003°22'0 0.0
2015-Jan-17 20:32N 06°26' E 003°22'0 0.0
2015-Jan-17 19:23N 06°26' E 003°22'0 0.0
2015-Jan-17 18:32N 06°26' E 003°22'0 0.0
2015-Jan-17 17:32N 06°26' E 003°22'0 0.0
2015-Jan-17 16:29N 06°26' E 003°22'0 0.0
2015-Jan-17 15:23N 06°26' E 003°22'0 0.0
2015-Jan-17 14:32N 06°26' E 003°22'0 0.0
2015-Jan-17 13:32N 06°26' E 003°22'0 0.0
2015-Jan-17 12:32N 06°26' E 003°22'0 0.0
2015-Jan-17 11:26N 06°26' E 003°22'0 0.0
2015-Jan-17 10:29N 06°26' E 003°22'0 0.0
2015-Jan-17 09:29N 06°26' E 003°22'0 0.0
2015-Jan-17 08:20N 06°26' E 003°22'0 0.0
2015-Jan-17 07:32N 06°26' E 003°22'0 0.0
2015-Jan-17 06:32N 06°26' E 003°22'0 0.0
2015-Jan-17 05:29N 06°26' E 003°22'0 0.0
2015-Jan-17 04:20N 06°26' E 003°22'0 0.0
2015-Jan-17 02:32N 06°26' E 003°22'0 0.0
2015-Jan-17 01:26N 06°26' E 003°22'0 0.0
2015-Jan-17 00:32N 06°26' E 003°22'0 0.0
2015-Jan-16 21:26N 06°26' E 003°22'0 0.0
2015-Jan-16 17:20N 06°26' E 003°22'0 0.0
2015-Jan-16 16:29N 06°26' E 003°22'3 2.9
2015-Jan-16 15:33N 06°25' E 003°24'4 4.0
2015-Jan-16 14:33N 06°21' E 003°25'0 0.3
2015-Jan-16 13:33N 06°21' E 003°25'4 3.6
2015-Jan-16 12:33N 06°18' E 003°27'8 7.7
2015-Jan-16 11:33N 06°11' E 003°26'1212.2
2015-Jan-16 10:33N 06°03' E 003°17'  
Track history (hours):
 
Tides and Currents Weather Stations Pressure Air Temp Water Temp Dewpoint Dewpoint Depression Visibility Wind Speed Wind Dir Waves Ship Positions

Safmarine Limpopo

Last reported at 2015-Jan-19 07:32 UTC. Time now 2015-Jan-28 16:14 UTC.
Position N 06°10' E 003°28'.
Warning: this ship's position is 9 days out of date.

Length 140 m; draft 8.6 m.

Type: Ship (hazmat cat A). MMSI: 417222324.

Date/timePositionNaut miles runAvg speedWind from/ knotsBaromVisibWave heightAir tempDewpointWater temp
2015-Jan-19 07:32N 06°10' E 003°28'1212.2
2015-Jan-19 06:34N 06°22' E 003°25'5 5.3
2015-Jan-19 05:32N 06°26' E 003°22'0 0.0
2015-Jan-19 04:32N 06°26' E 003°22'0 0.0
2015-Jan-19 03:32N 06°26' E 003°22'0 0.0
2015-Jan-19 02:32N 06°26' E 003°22'0 0.0
2015-Jan-19 01:32N 06°26' E 003°22'0 0.0
2015-Jan-19 00:32N 06°26' E 003°22'0 0.0
2015-Jan-18 23:29N 06°26' E 003°22'0 0.0
2015-Jan-18 22:20N 06°26' E 003°22'0 0.0
2015-Jan-18 21:14N 06°26' E 003°22'0 0.0
2015-Jan-18 20:29N 06°26' E 003°22'0 0.0
2015-Jan-18 19:32N 06°26' E 003°22'0 0.0
2015-Jan-18 18:26N 06°26' E 003°22'0 0.0
2015-Jan-18 17:26N 06°26' E 003°22'0 0.0
2015-Jan-18 16:32N 06°26' E 003°22'0 0.0
2015-Jan-18 15:29N 06°26' E 003°22'0 0.0
2015-Jan-18 14:32N 06°26' E 003°22'0 0.0
2015-Jan-18 13:32N 06°26' E 003°22'0 0.0
2015-Jan-18 12:23N 06°26' E 003°22'0 0.0
2015-Jan-18 11:29N 06°26' E 003°22'0 0.0
2015-Jan-18 10:23N 06°26' E 003°22'0 0.0
2015-Jan-18 09:23N 06°26' E 003°22'0 0.0
2015-Jan-18 08:32N 06°26' E 003°22'0 0.0
2015-Jan-18 07:32N 06°26' E 003°22'0 0.0
2015-Jan-18 06:32N 06°26' E 003°22'0 0.0
2015-Jan-18 05:32N 06°26' E 003°22'0 0.0
2015-Jan-18 04:32N 06°26' E 003°22'0 0.0
2015-Jan-18 03:32N 06°26' E 003°22'0 0.0
2015-Jan-18 02:26N 06°26' E 003°22'0 0.0
2015-Jan-18 01:29N 06°26' E 003°22'0 0.0
2015-Jan-18 00:32N 06°26' E 003°22'0 0.0
2015-Jan-17 23:23N 06°26' E 003°22'0 0.0
2015-Jan-17 21:32N 06°26' E 003°22'0 0.0
2015-Jan-17 20:32N 06°26' E 003°22'0 0.0
2015-Jan-17 19:23N 06°26' E 003°22'0 0.0
2015-Jan-17 18:32N 06°26' E 003°22'0 0.0
2015-Jan-17 17:32N 06°26' E 003°22'0 0.0
2015-Jan-17 16:29N 06°26' E 003°22'0 0.0
2015-Jan-17 15:23N 06°26' E 003°22'0 0.0
2015-Jan-17 14:32N 06°26' E 003°22'0 0.0
2015-Jan-17 13:32N 06°26' E 003°22'0 0.0
2015-Jan-17 12:32N 06°26' E 003°22'0 0.0
2015-Jan-17 11:26N 06°26' E 003°22'0 0.0
2015-Jan-17 10:29N 06°26' E 003°22'0 0.0
2015-Jan-17 09:29N 06°26' E 003°22'0 0.0
2015-Jan-17 08:20N 06°26' E 003°22'0 0.0
2015-Jan-17 07:32N 06°26' E 003°22'0 0.0
2015-Jan-17 06:32N 06°26' E 003°22'0 0.0
2015-Jan-17 05:29N 06°26' E 003°22'0 0.0
2015-Jan-17 04:20N 06°26' E 003°22'0 0.0
2015-Jan-17 02:32N 06°26' E 003°22'0 0.0
2015-Jan-17 01:26N 06°26' E 003°22'0 0.0
2015-Jan-17 00:32N 06°26' E 003°22'0 0.0
2015-Jan-16 21:26N 06°26' E 003°22'0 0.0
2015-Jan-16 17:20N 06°26' E 003°22'0 0.0
2015-Jan-16 16:29N 06°26' E 003°22'3 2.9
2015-Jan-16 15:33N 06°25' E 003°24'4 4.0
2015-Jan-16 14:33N 06°21' E 003°25'0 0.3
2015-Jan-16 13:33N 06°21' E 003°25'4 3.6
2015-Jan-16 12:33N 06°18' E 003°27'8 7.7
2015-Jan-16 11:33N 06°11' E 003°26'1212.2
2015-Jan-16 10:33N 06°03' E 003°17'  

Dump ship's entire track history